Time;durP1;ratioP1;P1;durP2;ratioP2;P2;SDS_P1;SDS_P2;PMS_P1;PMS_P2;Temp;Humidity;BMP_temperature;BMP_pressure;BME280_temperature;BME280_humidity;BME280_pressure;Samples;Min_cycle;Max_cycle;Signal;HPM_P1;HPM_P2
2023/12/25 00:01:16;;;;;;;217.38;142.77;;;;;;;23.19;62.78;99355.59;20812732;28;20227;-52
2023/12/25 00:11:19;;;;;;;195.27;128.98;;;;;;;23.27;63.51;99340.25;20841199;28;20516;-52
2023/12/25 00:21:20;;;;;;;240.95;161.02;;;;;;;23.35;63.48;99347.66;20810683;28;20236;-53
2023/12/25 00:31:24;;;;;;;254.38;173.98;;;;;;;23.41;63.22;99350.94;20811891;28;20204;-51
2023/12/25 00:41:30;;;;;;;252.60;170.23;;;;;;;23.36;63.54;99348.47;20827544;28;20669;-55
2023/12/25 00:51:33;;;;;;;240.82;163.15;;;;;;;23.33;63.47;99358.56;20836131;28;20217;-49
2023/12/25 01:01:35;;;;;;;228.00;151.90;;;;;;;23.36;63.53;99354.97;20826557;28;20230;-50
2023/12/25 01:11:42;;;;;;;210.63;142.65;;;;;;;23.27;62.94;99343.09;20826322;28;20209;-48
2023/12/25 01:21:43;;;;;;;249.05;174.80;;;;;;;23.33;63.29;99358.56;20831407;28;20236;-50
2023/12/25 01:31:46;;;;;;;248.77;172.18;;;;;;;23.25;64.07;99395.78;20830829;28;20217;-52
2023/12/25 01:41:48;;;;;;;257.55;180.73;;;;;;;23.22;63.52;99388.91;20808746;28;20311;-47
2023/12/25 01:51:52;;;;;;;262.83;186.60;;;;;;;23.04;62.90;99387.88;20827915;28;20295;-47
2023/12/25 02:01:53;;;;;;;243.57;168.45;;;;;;;22.92;62.58;99396.66;20823069;28;20715;-50
2023/12/25 02:11:57;;;;;;;231.25;162.30;;;;;;;22.87;62.92;99408.34;20828066;28;20239;-51
2023/12/25 02:21:59;;;;;;;219.88;151.55;;;;;;;22.80;62.65;99401.41;20845939;28;20223;-49
2023/12/25 02:32:02;;;;;;;199.27;135.68;;;;;;;22.74;62.87;99414.25;20777657;28;20210;-49
2023/12/25 02:42:05;;;;;;;192.50;132.60;;;;;;;22.71;62.67;99417.88;20804372;28;20319;-50
2023/12/25 02:52:08;;;;;;;184.90;127.35;;;;;;;22.67;62.44;99434.03;20826277;28;20204;-54
2023/12/25 03:02:09;;;;;;;164.85;115.68;;;;;;;22.64;62.88;99426.28;20817920;28;20327;-47
2023/12/25 03:12:12;;;;;;;148.30;105.72;;;;;;;22.84;61.88;99415.63;20822967;28;20215;-56
2023/12/25 03:22:14;;;;;;;146.10;100.93;;;;;;;23.02;61.38;99430.00;20835557;28;20306;-57
2023/12/25 03:32:19;;;;;;;133.63;93.25;;;;;;;23.11;60.63;99439.03;20853430;28;20232;-58
2023/12/25 03:42:20;;;;;;;120.25;87.38;;;;;;;23.14;60.72;99443.94;20850054;28;20501;-58
2023/12/25 03:52:23;;;;;;;118.15;85.35;;;;;;;23.15;60.41;99431.38;20841898;28;20577;-58
2023/12/25 04:02:25;;;;;;;111.65;79.47;;;;;;;23.12;60.66;99435.81;20811055;28;20300;-56
2023/12/25 04:12:28;;;;;;;103.70;75.30;;;;;;;23.12;60.48;99458.50;20833611;28;20319;-58
2023/12/25 04:22:30;;;;;;;94.80;68.55;;;;;;;23.08;60.32;99448.34;20832314;28;20618;-57
2023/12/25 04:32:33;;;;;;;90.10;65.10;;;;;;;23.05;60.68;99468.97;20835232;28;20217;-51
2023/12/25 04:42:35;;;;;;;88.30;62.05;;;;;;;23.02;60.73;99461.22;20841680;28;20327;-47
2023/12/25 04:52:38;;;;;;;79.93;58.05;;;;;;;23.01;60.18;99462.44;20847412;28;20219;-48
2023/12/25 05:02:40;;;;;;;78.82;56.47;;;;;;;22.95;60.47;99452.66;20834610;28;20213;-49
2023/12/25 05:12:43;;;;;;;73.15;53.08;;;;;;;22.92;60.37;99467.59;20820154;28;20511;-52
2023/12/25 05:22:44;;;;;;;71.75;50.15;;;;;;;22.89;60.72;99448.50;20827930;28;20240;-50
2023/12/25 05:32:47;;;;;;;70.43;49.25;;;;;;;22.85;60.90;99459.78;20843310;28;20649;-53
2023/12/25 05:42:49;;;;;;;64.80;46.67;;;;;;;22.80;60.74;99441.13;20830429;28;20648;-50
2023/12/25 05:52:52;;;;;;;61.03;44.38;;;;;;;22.78;61.06;99474.72;20838213;28;20303;-48
2023/12/25 06:02:54;;;;;;;60.65;43.10;;;;;;;22.77;61.09;99458.09;20828117;28;20211;-50
2023/12/25 06:12:57;;;;;;;58.90;42.20;;;;;;;22.74;60.89;99467.31;20830319;28;20212;-55
2023/12/25 06:22:59;;;;;;;54.78;39.20;;;;;;;22.69;60.65;99450.66;20825938;28;20320;-50
2023/12/25 06:33:02;;;;;;;51.25;37.80;;;;;;;22.69;61.13;99464.84;20819481;28;20224;-48
2023/12/25 06:43:04;;;;;;;50.28;35.90;;;;;;;22.67;60.84;99470.91;20813981;28;20209;-52
2023/12/25 06:53:08;;;;;;;48.22;34.00;;;;;;;22.64;60.99;99470.84;20818386;28;20223;-53
2023/12/25 07:03:10;;;;;;;43.92;31.95;;;;;;;22.62;60.97;99468.38;20821281;28;20204;-50
2023/12/25 07:13:14;;;;;;;45.47;33.40;;;;;;;22.59;61.46;99474.03;20823066;28;20224;-53
2023/12/25 07:23:17;;;;;;;42.80;31.02;;;;;;;22.57;61.31;99465.91;20819536;28;20862;-50
2023/12/25 07:33:20;;;;;;;41.75;29.92;;;;;;;22.51;61.21;99503.47;20854939;28;20974;-52
2023/12/25 07:43:22;;;;;;;35.72;27.15;;;;;;;22.46;61.72;99516.75;20831326;28;20511;-47
2023/12/25 07:53:25;;;;;;;37.80;27.08;;;;;;;22.42;61.67;99526.44;20819904;28;20290;-59
2023/12/25 08:03:27;;;;;;;36.22;26.05;;;;;;;22.40;62.07;99538.16;20792321;28;20208;-53
2023/12/25 08:13:30;;;;;;;32.67;24.55;;;;;;;22.35;62.06;99546.16;20842659;28;20220;-56
2023/12/25 08:23:32;;;;;;;33.20;24.20;;;;;;;22.33;61.99;99557.09;20804240;28;20234;-54
2023/12/25 08:33:36;;;;;;;31.75;23.15;;;;;;;22.32;61.83;99561.13;20826394;28;20626;-58
2023/12/25 08:43:38;;;;;;;30.55;23.20;;;;;;;22.23;62.18;99591.72;20808408;28;20212;-53
2023/12/25 08:53:41;;;;;;;34.88;22.80;;;;;;;22.26;62.10;99605.13;20803342;28;20233;-51
2023/12/25 09:03:43;;;;;;;26.52;19.75;;;;;;;22.29;62.66;99622.22;20758569;28;20224;-58
2023/12/25 09:13:46;;;;;;;30.33;20.30;;;;;;;22.32;63.16;99624.28;20806722;28;20235;-58
2023/12/25 09:23:48;;;;;;;27.13;19.23;;;;;;;22.30;63.08;99649.38;20811971;28;20645;-52
2023/12/25 09:33:51;;;;;;;22.83;17.48;;;;;;;22.28;63.21;99659.44;20806060;28;20636;-56
2023/12/25 09:43:54;;;;;;;22.27;16.98;;;;;;;22.26;63.18;99679.66;20799950;28;20200;-51
2023/12/25 09:53:57;;;;;;;22.95;17.08;;;;;;;22.26;63.08;99676.00;20803361;28;20227;-58
2023/12/25 10:04:00;;;;;;;22.10;16.15;;;;;;;22.26;62.97;99681.66;20808302;28;20284;-57
2023/12/25 10:14:04;;;;;;;20.45;15.75;;;;;;;22.31;62.89;99681.38;20753251;28;20236;-59
2023/12/25 10:24:12;;;;;;;19.08;14.63;;;;;;;22.35;62.84;99691.56;20792056;28;20228;-56
2023/12/25 10:34:19;;;;;;;19.73;14.40;;;;;;;22.34;62.86;99684.25;20812459;28;20232;-57
2023/12/25 10:44:23;;;;;;;17.95;13.95;;;;;;;22.36;62.53;99664.84;20789998;28;20208;-48
2023/12/25 10:54:26;;;;;;;16.45;12.45;;;;;;;22.42;62.55;99654.84;20805333;28;20314;-52
2023/12/25 11:04:28;;;;;;;16.27;12.10;;;;;;;22.45;62.07;99664.63;20796279;28;20228;-55
2023/12/25 11:14:33;;;;;;;16.95;12.15;;;;;;;22.52;63.09;99661.88;20789836;28;20227;-50
2023/12/25 11:24:34;;;;;;;46.75;31.67;;;;;;;22.51;64.42;99643.22;20800186;28;20228;-47
2023/12/25 11:34:40;;;;;;;70.95;48.88;;;;;;;22.68;65.36;99636.22;20801417;28;20313;-53
2023/12/25 11:44:42;;;;;;;75.20;52.45;;;;;;;22.73;69.57;99628.19;20811719;28;20261;-51
2023/12/25 11:54:45;;;;;;;71.68;51.58;;;;;;;22.78;69.61;99629.94;20811506;28;20262;-47
2023/12/25 12:04:47;;;;;;;73.35;51.65;;;;;;;22.85;70.24;99637.75;20796693;28;20601;-48
2023/12/25 12:14:52;;;;;;;64.10;45.95;;;;;;;22.86;70.47;99645.03;20820094;28;20220;-47
2023/12/25 12:24:54;;;;;;;91.18;66.50;;;;;;;22.89;69.09;99666.97;20826655;28;20521;-55
2023/12/25 12:34:59;;;;;;;94.30;67.68;;;;;;;22.82;68.21;99658.38;20824897;28;20303;-55
2023/12/25 12:45:02;;;;;;;122.10;84.00;;;;;;;22.80;68.07;99656.72;20792505;28;20292;-54
2023/12/25 12:55:06;;;;;;;106.65;76.28;;;;;;;22.84;68.10;99642.59;20806230;28;20228;-58
2023/12/25 13:05:08;;;;;;;105.38;73.22;;;;;;;22.85;67.25;99675.41;20810413;28;20200;-59
2023/12/25 13:15:12;;;;;;;95.90;66.85;;;;;;;22.94;66.88;99700.72;20808035;28;20230;-49
2023/12/25 13:25:14;;;;;;;121.18;83.88;;;;;;;23.49;64.81;99677.22;20815559;28;20595;-56
2023/12/25 13:35:18;;;;;;;123.80;87.03;;;;;;;24.05;62.66;99664.09;20810055;28;20234;-55
2023/12/25 13:45:20;;;;;;;118.10;82.97;;;;;;;24.40;62.12;99673.06;20811036;28;20205;-58
2023/12/25 13:55:23;;;;;;;109.88;78.50;;;;;;;24.58;60.71;99681.75;20810856;28;20319;-60
2023/12/25 14:05:25;;;;;;;180.80;122.72;;;;;;;24.82;59.74;99691.69;20818616;28;20230;-57
2023/12/25 14:15:28;;;;;;;191.15;130.80;;;;;;;25.00;59.67;99711.81;20813565;28;20311;-59
2023/12/25 14:25:30;;;;;;;192.82;131.77;;;;;;;24.92;58.15;99702.38;20814330;28;20311;-56
2023/12/25 14:35:33;;;;;;;214.07;148.07;;;;;;;25.01;59.03;99693.53;20794237;28;20232;-52
2023/12/25 14:45:35;;;;;;;230.95;159.80;;;;;;;25.13;59.63;99684.66;20813171;28;20695;-56
2023/12/25 14:55:39;;;;;;;228.38;158.35;;;;;;;25.11;59.69;99681.38;20790815;28;20266;-55
2023/12/25 15:05:41;;;;;;;199.80;136.95;;;;;;;25.02;61.41;99683.78;20824075;28;20504;-48
2023/12/25 15:15:44;;;;;;;182.95;127.85;;;;;;;24.93;60.24;99704.84;20809384;28;20624;-54
2023/12/25 15:25:46;;;;;;;176.95;124.65;;;;;;;24.83;60.58;99685.63;20830624;28;20216;-53
2023/12/25 15:35:49;;;;;;;153.20;111.93;;;;;;;24.78;60.72;99691.69;20824721;28;20224;-55
2023/12/25 15:45:51;;;;;;;140.15;100.30;;;;;;;24.76;61.48;99674.19;20835953;28;20657;-54
2023/12/25 15:55:54;;;;;;;120.88;87.38;;;;;;;24.71;61.62;99683.06;20820237;28;20232;-53
2023/12/25 16:05:56;;;;;;;116.75;83.32;;;;;;;24.65;61.75;99681.00;20827332;28;20204;-57
2023/12/25 16:15:59;;;;;;;168.40;118.03;;;;;;;24.61;61.99;99683.00;20828687;28;20228;-55
2023/12/25 16:26:00;;;;;;;194.98;134.05;;;;;;;24.62;62.28;99676.91;20825140;28;20239;-57
2023/12/25 16:36:06;;;;;;;176.93;121.18;;;;;;;24.60;62.38;99676.47;20815518;28;20226;-58
2023/12/25 16:46:07;;;;;;;157.18;108.95;;;;;;;24.44;62.35;99692.97;20822754;28;20495;-54
2023/12/25 16:56:11;;;;;;;138.23;98.38;;;;;;;24.37;62.33;99688.06;20801095;28;20246;-57
2023/12/25 17:06:18;;;;;;;119.63;85.68;;;;;;;24.32;63.22;99679.03;20811527;28;20205;-53
